createdAt,value
2023-05-21T00:00:12.487Z,5.40
2023-05-21T00:03:19.238Z,5.55
2023-05-21T00:06:24.802Z,5.45
2023-05-21T00:09:30.250Z,6.10
2023-05-21T00:12:38.208Z,5.35
2023-05-21T00:15:43.682Z,5.28
2023-05-21T00:18:50.034Z,5.55
2023-05-21T00:21:58.898Z,5.15
2023-05-21T00:25:04.334Z,4.80
2023-05-21T00:28:13.101Z,4.93
2023-05-21T00:31:19.628Z,4.93
2023-05-21T00:34:25.326Z,5.00
2023-05-21T00:37:34.916Z,4.88
2023-05-21T00:40:41.598Z,4.03
2023-05-21T00:43:50.029Z,4.43
2023-05-21T00:46:56.717Z,4.50
2023-05-21T00:50:02.509Z,4.28
2023-05-21T00:53:11.663Z,4.78
2023-05-21T00:56:17.265Z,4.75
2023-05-21T00:59:25.326Z,4.57
2023-05-21T01:02:35.142Z,4.82
2023-05-21T01:05:40.514Z,4.30
2023-05-21T01:08:46.192Z,4.30
2023-05-21T01:11:53.528Z,4.55
2023-05-21T01:15:02.158Z,4.65
2023-05-21T01:18:13.010Z,4.82
2023-05-21T01:21:19.736Z,4.72
2023-05-21T01:24:27.842Z,4.95
2023-05-21T01:27:33.193Z,5.30
2023-05-21T01:30:39.146Z,4.82
2023-05-21T01:33:47.465Z,4.80
2023-05-21T01:36:56.559Z,5.10
2023-05-21T01:40:08.714Z,5.07
2023-05-21T01:43:15.124Z,5.25
2023-05-21T01:46:23.225Z,4.90
2023-05-21T01:49:29.269Z,5.32
2023-05-21T01:52:34.728Z,5.25
2023-05-21T01:55:42.910Z,5.35
2023-05-21T01:58:50.409Z,5.97
2023-05-21T02:01:56.226Z,5.65
2023-05-21T02:05:01.643Z,5.85
2023-05-21T02:08:10.821Z,5.72
2023-05-21T02:11:18.901Z,6.10
2023-05-21T02:14:25.827Z,6.13
2023-05-21T02:17:34.182Z,5.80
2023-05-21T02:20:40.542Z,6.07
2023-05-21T02:23:46.069Z,6.72
2023-05-21T02:26:54.139Z,8.00
2023-05-21T02:29:59.569Z,6.97
2023-05-21T02:33:05.320Z,6.22
2023-05-21T02:36:13.497Z,6.38
2023-05-21T02:39:19.163Z,6.28
2023-05-21T02:42:27.484Z,6.68
2023-05-21T02:45:33.710Z,6.75
2023-05-21T02:48:39.638Z,6.95
2023-05-21T02:51:45.400Z,6.40
2023-05-21T02:54:50.662Z,7.47
2023-05-21T02:57:58.740Z,7.68
2023-05-21T03:01:03.980Z,7.50
2023-05-21T03:04:10.048Z,7.97
2023-05-21T03:07:15.368Z,8.13
2023-05-21T03:10:22.724Z,8.18
2023-05-21T03:13:31.296Z,7.80
2023-05-21T03:16:36.937Z,8.95
2023-05-21T03:19:42.647Z,8.75
2023-05-21T03:22:50.306Z,9.27
2023-05-21T03:29:04.619Z,8.25
2023-05-21T03:32:12.314Z,7.93
2023-05-21T03:35:18.361Z,8.75
2023-05-21T03:38:24.088Z,7.75
2023-05-21T03:41:29.934Z,8.07
2023-05-21T03:44:46.301Z,9.07
2023-05-21T03:48:21.301Z,7.63
2023-05-21T03:51:27.867Z,7.88
2023-05-21T03:54:33.642Z,8.18
2023-05-21T03:57:44.194Z,8.75
2023-05-21T04:00:52.364Z,7.90
2023-05-21T04:07:05.404Z,8.98
2023-05-21T04:10:11.554Z,8.73
2023-05-21T04:13:17.183Z,9.25
2023-05-21T04:16:25.464Z,8.68
2023-05-21T04:19:31.648Z,8.63
2023-05-21T04:22:37.659Z,7.82
2023-05-21T04:25:43.620Z,8.55
2023-05-21T04:28:49.140Z,8.30
2023-05-21T04:31:57.918Z,7.68
2023-05-21T04:35:04.688Z,8.40
2023-05-21T04:38:10.191Z,7.40
2023-05-21T04:41:19.271Z,6.97
2023-05-21T04:44:25.163Z,7.68
2023-05-21T04:47:35.983Z,7.80
2023-05-21T04:50:42.296Z,7.45
2023-05-21T04:53:48.397Z,8.73
2023-05-21T04:56:53.934Z,7.65
2023-05-21T04:59:59.442Z,7.50
2023-05-21T05:03:08.528Z,7.65
2023-05-21T05:06:13.997Z,7.05
2023-05-21T05:09:19.957Z,7.75
2023-05-21T05:12:26.151Z,7.20
2023-05-21T05:15:31.842Z,7.95
2023-05-21T05:18:40.050Z,8.50
2023-05-21T05:21:45.748Z,7.90
2023-05-21T05:24:51.423Z,7.38
2023-05-21T05:27:57.493Z,7.22
2023-05-21T05:31:03.885Z,7.00
2023-05-21T05:34:13.522Z,7.38
2023-05-21T05:37:18.934Z,6.40
2023-05-21T05:40:24.421Z,6.55
2023-05-21T05:43:30.229Z,6.45
2023-05-21T05:46:37.294Z,6.07
2023-05-21T05:49:45.333Z,5.93
2023-05-21T05:52:51.576Z,6.22
2023-05-21T05:55:57.211Z,5.72
2023-05-21T05:59:02.737Z,5.70
2023-05-21T06:02:09.197Z,5.22
2023-05-21T06:05:17.364Z,5.75
2023-05-21T06:08:23.914Z,6.25
2023-05-21T06:11:30.677Z,6.25
2023-05-21T06:14:36.603Z,5.38
2023-05-21T06:17:42.285Z,6.20
2023-05-21T06:20:53.067Z,5.47
2023-05-21T06:24:00.333Z,5.85
2023-05-21T06:27:07.721Z,5.05
2023-05-21T06:30:13.420Z,4.93
2023-05-21T06:33:19.145Z,5.00
2023-05-21T06:36:30.247Z,4.68
2023-05-21T06:39:36.187Z,4.30
2023-05-21T06:42:41.949Z,4.45
2023-05-21T06:46:07.427Z,3.92
2023-05-21T06:49:17.092Z,4.85
2023-05-21T06:52:25.268Z,4.40
2023-05-21T06:55:31.111Z,4.30
2023-05-21T06:58:56.350Z,4.15
2023-05-21T07:02:04.351Z,3.30
2023-05-21T07:05:10.800Z,4.28
2023-05-21T07:08:20.463Z,4.70
2023-05-21T07:11:29.073Z,3.65
2023-05-21T07:14:35.572Z,4.05
2023-05-21T07:17:41.490Z,4.20
2023-05-21T07:20:47.290Z,3.70
2023-05-21T07:23:57.243Z,3.90
2023-05-21T07:27:11.352Z,3.70
2023-05-21T07:30:24.178Z,3.15
2023-05-21T07:33:31.225Z,3.50
2023-05-21T07:36:37.419Z,3.65
2023-05-21T07:39:45.511Z,3.60
2023-05-21T07:42:51.484Z,3.33
2023-05-21T07:45:58.653Z,3.70
2023-05-21T07:49:05.810Z,3.33
2023-05-21T07:52:11.126Z,4.22
2023-05-21T07:55:19.264Z,3.67
2023-05-21T07:58:26.721Z,3.53
2023-05-21T08:01:33.468Z,3.33
2023-05-21T08:04:41.192Z,3.83
2023-05-21T08:07:48.723Z,3.97
2023-05-21T08:10:56.753Z,3.83
2023-05-21T08:14:04.343Z,3.55
2023-05-21T08:17:10.087Z,3.30
2023-05-21T08:20:16.370Z,3.88
2023-05-21T08:23:24.047Z,3.95
2023-05-21T08:26:36.026Z,3.80
2023-05-21T08:32:47.030Z,3.33
2023-05-21T08:35:55.298Z,3.50
2023-05-21T08:39:08.666Z,3.67
2023-05-21T08:42:35.710Z,4.00
2023-05-21T08:45:45.377Z,3.90
2023-05-21T08:48:51.074Z,3.58
2023-05-21T08:51:56.718Z,3.97
2023-05-21T08:55:03.851Z,3.47
2023-05-21T08:58:14.052Z,3.95
2023-05-21T09:01:20.519Z,4.88
2023-05-21T09:04:32.045Z,4.18
2023-05-21T09:07:41.803Z,3.67
2023-05-21T09:11:04.820Z,3.85
2023-05-21T09:14:19.509Z,3.28
2023-05-21T09:17:45.382Z,3.55
2023-05-21T09:21:24.150Z,3.13
2023-05-21T09:24:36.106Z,3.30
2023-05-21T09:27:44.223Z,3.13
2023-05-21T09:30:55.329Z,3.10
2023-05-21T09:34:01.611Z,3.25
2023-05-21T09:37:23.535Z,2.92
2023-05-21T09:40:32.678Z,2.95
2023-05-21T09:43:38.095Z,2.95
2023-05-21T09:46:47.230Z,3.20
2023-05-21T09:52:58.847Z,3.88
2023-05-21T09:56:04.362Z,3.50
2023-05-21T09:59:10.861Z,3.28
2023-05-21T10:02:23.472Z,3.17
2023-05-21T10:05:30.168Z,3.50
2023-05-21T10:08:39.421Z,3.22
2023-05-21T10:11:47.103Z,4.10
2023-05-21T10:14:58.318Z,3.70
2023-05-21T10:18:07.171Z,3.17
2023-05-21T10:21:12.923Z,3.55
2023-05-21T10:24:18.582Z,3.95
2023-05-21T10:27:24.484Z,3.50
2023-05-21T10:30:29.692Z,4.00
2023-05-21T10:33:39.139Z,3.33
2023-05-21T10:36:45.029Z,3.40
2023-05-21T10:39:51.200Z,3.28
2023-05-21T10:43:17.399Z,3.58
2023-05-21T10:46:33.256Z,3.42
2023-05-21T10:49:53.391Z,3.17
2023-05-21T10:53:05.519Z,3.10
2023-05-21T10:56:16.471Z,3.42
2023-05-21T10:59:28.794Z,3.67
2023-05-21T11:02:34.608Z,3.30
2023-05-21T11:05:44.564Z,3.15
2023-05-21T11:08:55.318Z,3.40
2023-05-21T11:12:01.927Z,3.65
2023-05-21T11:15:07.821Z,3.40
2023-05-21T11:18:13.315Z,4.07
2023-05-21T11:21:19.084Z,3.78
2023-05-21T11:24:28.888Z,4.20
2023-05-21T11:27:36.028Z,4.28
2023-05-21T11:30:41.953Z,4.60
2023-05-21T11:33:50.470Z,3.92
2023-05-21T11:37:16.147Z,3.60
2023-05-21T11:40:26.631Z,3.75
2023-05-21T11:43:32.447Z,3.50
2023-05-21T11:46:37.710Z,3.38
2023-05-21T11:49:43.345Z,3.33
2023-05-21T11:52:49.170Z,3.33
2023-05-21T11:55:57.951Z,3.20
2023-05-21T11:59:05.470Z,3.90
2023-05-21T12:02:11.523Z,4.32
2023-05-21T12:05:17.016Z,5.05
2023-05-21T12:08:26.000Z,3.83
2023-05-21T12:11:34.537Z,4.18
2023-05-21T12:14:39.972Z,4.22
2023-05-21T12:17:45.219Z,3.30
2023-05-21T12:20:50.756Z,3.13
2023-05-21T12:23:56.176Z,4.43
2023-05-21T12:27:10.094Z,3.80
2023-05-21T12:30:15.687Z,3.97
2023-05-21T12:33:25.038Z,3.72
2023-05-21T12:36:34.737Z,3.83
2023-05-21T12:39:43.736Z,3.67
2023-05-21T12:42:53.114Z,3.38
2023-05-21T12:45:59.823Z,3.08
2023-05-21T12:49:05.066Z,3.08
2023-05-21T12:52:14.106Z,3.28
2023-05-21T12:55:20.411Z,3.30
2023-05-21T12:58:28.565Z,3.33
2023-05-21T13:01:34.078Z,3.70
2023-05-21T13:04:39.693Z,3.95
2023-05-21T13:07:47.587Z,3.72
2023-05-21T13:10:53.615Z,3.38
2023-05-21T13:14:01.522Z,3.95
2023-05-21T13:17:07.312Z,4.20
2023-05-21T13:20:15.382Z,3.35
2023-05-21T13:23:21.264Z,3.30
2023-05-21T13:26:26.566Z,3.95
2023-05-21T13:29:36.248Z,3.60
2023-05-21T13:32:42.858Z,2.88
2023-05-21T13:35:51.557Z,3.10
2023-05-21T13:42:01.942Z,2.47
2023-05-21T13:45:11.057Z,2.30
2023-05-21T13:48:16.991Z,3.00
2023-05-21T13:51:37.402Z,2.72
2023-05-21T13:54:45.317Z,2.70
2023-05-21T13:57:51.200Z,3.00
2023-05-21T14:00:59.363Z,2.60
2023-05-21T14:04:06.036Z,3.25
2023-05-21T14:07:11.842Z,2.53
2023-05-21T14:10:17.371Z,2.22
2023-05-21T14:13:23.010Z,2.42
2023-05-21T14:16:31.142Z,1.75
2023-05-21T14:19:36.658Z,2.90
2023-05-21T14:22:41.905Z,2.40
2023-05-21T14:25:47.491Z,2.85
2023-05-21T14:28:52.976Z,3.45
2023-05-21T14:32:01.486Z,2.95
2023-05-21T14:35:07.738Z,2.97
2023-05-21T14:38:13.165Z,3.45
2023-05-21T14:41:18.570Z,3.58
2023-05-21T14:44:24.152Z,2.97
2023-05-21T14:47:32.057Z,3.80
2023-05-21T14:50:37.535Z,3.13
2023-05-21T14:53:42.970Z,3.67
2023-05-21T14:56:48.438Z,3.55
2023-05-21T14:59:53.826Z,3.35
2023-05-21T15:03:02.677Z,4.10
2023-05-21T15:06:08.400Z,4.07
2023-05-21T15:09:13.671Z,3.30
2023-05-21T15:12:19.247Z,3.55
2023-05-21T15:15:24.716Z,3.35
2023-05-21T15:18:32.774Z,3.70
2023-05-21T15:21:38.143Z,5.63
2023-05-21T15:24:45.177Z,3.42
2023-05-21T15:27:50.841Z,3.45
2023-05-21T15:30:56.714Z,3.60
2023-05-21T15:34:04.854Z,3.47
2023-05-21T15:37:10.568Z,4.10
2023-05-21T15:40:16.878Z,3.75
2023-05-21T15:43:22.383Z,3.13
2023-05-21T15:46:27.727Z,3.17
2023-05-21T15:49:35.892Z,3.33
2023-05-21T15:52:41.148Z,3.25
2023-05-21T15:55:46.589Z,3.40
2023-05-21T15:58:51.769Z,3.28
2023-05-21T16:01:57.600Z,3.28
2023-05-21T16:05:05.754Z,2.80
2023-05-21T16:11:16.794Z,2.97
2023-05-21T16:14:22.515Z,3.38
2023-05-21T16:17:27.974Z,2.72
2023-05-21T16:20:36.162Z,3.00
2023-05-21T16:23:41.842Z,3.15
2023-05-21T16:26:48.003Z,2.75
2023-05-21T16:29:53.266Z,2.58
2023-05-21T16:32:58.681Z,3.08
2023-05-21T16:36:06.985Z,2.90
2023-05-21T16:39:12.455Z,3.10
2023-05-21T16:42:17.709Z,3.15
2023-05-21T16:45:23.967Z,3.25
2023-05-21T16:48:29.413Z,3.03
2023-05-21T16:51:37.736Z,2.90
2023-05-21T16:57:50.586Z,3.25
2023-05-21T17:00:56.025Z,2.60
2023-05-21T17:04:01.850Z,3.60
2023-05-21T17:07:10.048Z,3.20
2023-05-21T17:10:15.520Z,3.35
2023-05-21T17:13:23.060Z,3.20
2023-05-21T17:16:29.567Z,3.20
2023-05-21T17:19:35.228Z,3.92
2023-05-21T17:22:43.589Z,3.67
2023-05-21T17:25:48.872Z,8.15
2023-05-21T17:28:54.388Z,4.70
2023-05-21T17:31:59.788Z,3.67
2023-05-21T17:35:05.374Z,3.35
2023-05-21T17:38:14.418Z,3.70
2023-05-21T17:41:20.328Z,3.08
2023-05-21T17:44:25.536Z,3.30
2023-05-21T17:47:31.268Z,3.63
2023-05-21T17:50:36.772Z,3.83
2023-05-21T17:53:45.232Z,4.05
2023-05-21T17:56:50.650Z,4.30
2023-05-21T17:59:56.357Z,3.95
2023-05-21T18:03:01.918Z,3.78
2023-05-21T18:06:09.409Z,4.03
2023-05-21T18:09:17.729Z,3.83
2023-05-21T18:12:23.198Z,3.42
2023-05-21T18:15:28.641Z,3.67
2023-05-21T18:18:34.027Z,3.10
2023-05-21T18:21:40.224Z,3.80
2023-05-21T18:24:48.312Z,3.60
2023-05-21T18:27:53.670Z,3.60
2023-05-21T18:31:01.544Z,3.30
2023-05-21T18:34:07.091Z,4.32
2023-05-21T18:37:12.395Z,3.42
2023-05-21T18:40:22.105Z,3.58
2023-05-21T18:43:27.777Z,3.55
2023-05-21T18:46:32.987Z,3.33
2023-05-21T18:49:38.885Z,3.50
2023-05-21T18:52:44.323Z,3.70
2023-05-21T18:55:52.243Z,3.97
2023-05-21T18:58:57.794Z,3.75
2023-05-21T19:02:03.232Z,3.47
2023-05-21T19:05:09.331Z,3.20
2023-05-21T19:08:15.059Z,3.35
2023-05-21T19:11:23.793Z,3.55
2023-05-21T19:14:29.338Z,3.20
2023-05-21T19:17:35.487Z,4.28
2023-05-21T19:20:41.538Z,4.45
2023-05-21T19:23:53.125Z,3.90
2023-05-21T19:27:02.079Z,4.07
2023-05-21T19:30:07.881Z,3.53
2023-05-21T19:33:13.642Z,4.50
2023-05-21T19:36:19.444Z,4.35
2023-05-21T19:39:25.101Z,4.05
2023-05-21T19:42:33.026Z,3.95
2023-05-21T19:45:38.625Z,4.07
2023-05-21T19:48:46.704Z,5.45
2023-05-21T19:51:52.622Z,4.35
2023-05-21T19:55:04.676Z,4.38
2023-05-21T19:58:17.168Z,4.13
2023-05-21T20:01:23.706Z,4.22
2023-05-21T20:04:29.505Z,4.88
2023-05-21T20:07:34.732Z,5.03
2023-05-21T20:10:40.913Z,5.72
2023-05-21T20:13:50.739Z,4.82
2023-05-21T20:16:58.872Z,6.40
2023-05-21T20:20:08.083Z,4.60
2023-05-21T20:23:13.740Z,4.93
2023-05-21T20:26:19.685Z,5.20
2023-05-21T20:29:27.812Z,5.25
2023-05-21T20:32:33.354Z,5.72
2023-05-21T20:35:39.103Z,6.43
2023-05-21T20:38:45.865Z,7.13
2023-05-21T20:41:51.323Z,6.35
2023-05-21T20:44:59.160Z,7.10
2023-05-21T20:48:05.098Z,6.85
2023-05-21T20:51:10.467Z,6.25
2023-05-21T20:54:15.855Z,5.70
2023-05-21T20:57:22.682Z,6.65
2023-05-21T21:00:30.546Z,7.57
2023-05-21T21:03:37.304Z,8.25
2023-05-21T21:06:42.774Z,7.85
2023-05-21T21:09:48.249Z,8.13
2023-05-21T21:12:53.706Z,7.85
2023-05-21T21:16:01.810Z,8.82
2023-05-21T21:19:07.916Z,9.23
2023-05-21T21:22:13.165Z,7.22
2023-05-21T21:25:18.886Z,7.47
2023-05-21T21:28:24.356Z,7.63
2023-05-21T21:31:32.872Z,8.00
2023-05-21T21:34:38.405Z,8.60
2023-05-21T21:37:44.018Z,8.27
2023-05-21T21:40:49.339Z,8.27
2023-05-21T21:43:54.778Z,7.90
2023-05-21T21:47:02.525Z,7.85
2023-05-21T21:50:08.720Z,8.75
2023-05-21T21:53:14.284Z,8.35
2023-05-21T21:56:19.643Z,9.68
2023-05-21T21:59:25.307Z,7.90
2023-05-21T22:02:35.107Z,8.68
2023-05-21T22:05:41.015Z,8.20
2023-05-21T22:08:46.787Z,7.85
2023-05-21T22:11:52.484Z,8.00
2023-05-21T22:14:58.038Z,7.63
2023-05-21T22:18:06.191Z,8.70
2023-05-21T22:21:14.589Z,8.40
2023-05-21T22:24:31.482Z,8.60
2023-05-21T22:27:37.914Z,8.95
2023-05-21T22:30:43.438Z,8.10
2023-05-21T22:33:51.223Z,8.32
2023-05-21T22:36:57.198Z,8.13
2023-05-21T22:40:02.680Z,8.27
2023-05-21T22:43:10.527Z,7.63
2023-05-21T22:46:16.143Z,8.40
2023-05-21T22:49:24.265Z,8.23
2023-05-21T22:52:29.625Z,7.88
2023-05-21T22:55:35.432Z,8.18
2023-05-21T22:58:40.625Z,8.10
2023-05-21T23:01:45.962Z,8.63
2023-05-21T23:04:54.206Z,8.27
2023-05-21T23:07:59.809Z,8.73
2023-05-21T23:11:05.105Z,7.90
2023-05-21T23:14:10.928Z,8.00
2023-05-21T23:17:16.144Z,7.80
2023-05-21T23:20:24.947Z,8.15
2023-05-21T23:23:30.882Z,7.13
2023-05-21T23:26:36.427Z,8.85
2023-05-21T23:29:41.923Z,7.70
2023-05-21T23:32:47.986Z,8.25
2023-05-21T23:35:56.061Z,8.02
2023-05-21T23:39:01.634Z,7.72
2023-05-21T23:42:07.060Z,7.90
2023-05-21T23:45:12.898Z,8.27
2023-05-21T23:48:18.700Z,7.65
2023-05-21T23:51:27.007Z,7.70
2023-05-21T23:54:32.284Z,8.10
2023-05-21T23:57:37.738Z,8.05
